Time;durP1;ratioP1;P1;durP2;ratioP2;P2;SDS_P1;SDS_P2;PMS_P1;PMS_P2;Temp;Humidity;BMP_temperature;BMP_pressure;BME280_temperature;BME280_humidity;BME280_pressure;Samples;Min_cycle;Max_cycle;Signal;HPM_P1;HPM_P2
2023/03/09 00:00:41;;;;;;;;;;;19.60;39.40;;;;;;5056721;28;19920;-63
2023/03/09 00:03:15;;;;;;;;;;;19.60;39.40;;;;;;5057524;28;19978;-63
2023/03/09 00:05:42;;;;;;;;;;;19.50;39.30;;;;;;5075745;28;19920;-61
2023/03/09 00:08:08;;;;;;;;;;;19.60;39.40;;;;;;5075987;28;19974;-63
2023/03/09 00:10:37;;;;;;;;;;;19.60;39.40;;;;;;5076737;28;19925;-63
2023/03/09 00:13:03;;;;;;;;;;;19.60;39.30;;;;;;5058100;28;19924;-63
2023/03/09 00:15:31;;;;;;;;;;;19.50;39.20;;;;;;5056396;28;19920;-63
2023/03/09 00:17:57;;;;;;;;;;;19.50;39.20;;;;;;5057664;28;19942;-60
2023/03/09 00:20:24;;;;;;;;;;;19.50;39.20;;;;;;5058392;28;19924;-62
2023/03/09 00:22:51;;;;;;;;;;;19.50;39.20;;;;;;5056757;28;19921;-62
2023/03/09 00:25:18;;;;;;;;;;;19.50;39.20;;;;;;5058748;28;20259;-62
2023/03/09 00:27:48;;;;;;;;;;;19.50;39.20;;;;;;5056424;28;19925;-62
2023/03/09 00:30:15;;;;;;;;;;;19.50;39.10;;;;;;5076259;28;19921;-62
2023/03/09 00:32:41;;;;;;;;;;;19.50;39.10;;;;;;5055887;28;19921;-62
2023/03/09 00:35:09;;;;;;;;;;;19.50;39.10;;;;;;5057113;28;19974;-62
2023/03/09 00:37:37;;;;;;;;;;;19.50;39.10;;;;;;5058140;28;20027;-62
2023/03/09 00:40:05;;;;;;;;;;;19.50;39.10;;;;;;5073550;28;19920;-62
2023/03/09 00:42:32;;;;;;;;;;;19.50;39.10;;;;;;5075936;28;19921;-62
2023/03/09 00:45:00;;;;;;;;;;;19.50;39.10;;;;;;5069450;28;19973;-62
2023/03/09 00:47:27;;;;;;;;;;;19.50;39.00;;;;;;5078223;28;19950;-61
2023/03/09 00:49:54;;;;;;;;;;;19.50;39.00;;;;;;5056425;28;19920;-62
2023/03/09 00:52:21;;;;;;;;;;;19.50;39.00;;;;;;5055044;28;19920;-62
2023/03/09 00:54:49;;;;;;;;;;;19.50;39.00;;;;;;5060525;28;20362;-62
2023/03/09 00:57:16;;;;;;;;;;;19.50;39.00;;;;;;5076354;28;20003;-62
2023/03/09 00:59:44;;;;;;;;;;;19.50;39.00;;;;;;5076061;28;19942;-63
2023/03/09 01:02:12;;;;;;;;;;;19.50;39.00;;;;;;5075610;28;19921;-62
2023/03/09 01:04:39;;;;;;;;;;;19.40;38.90;;;;;;5056991;28;19963;-62
2023/03/09 01:07:06;;;;;;;;;;;19.50;39.00;;;;;;5054397;28;19978;-63
2023/03/09 01:09:33;;;;;;;;;;;19.50;38.90;;;;;;5055560;28;19921;-62
2023/03/09 01:11:59;;;;;;;;;;;19.40;38.90;;;;;;5057502;28;19974;-62
2023/03/09 01:14:26;;;;;;;;;;;19.40;38.90;;;;;;5074643;28;19927;-62
2023/03/09 01:16:53;;;;;;;;;;;19.40;38.90;;;;;;5073583;28;19920;-61
2023/03/09 01:19:21;;;;;;;;;;;19.40;38.90;;;;;;5075013;28;19920;-62
2023/03/09 01:21:48;;;;;;;;;;;19.50;38.90;;;;;;5054508;28;19952;-63
2023/03/09 01:24:15;;;;;;;;;;;19.40;38.80;;;;;;5070214;28;19928;-62
2023/03/09 01:26:41;;;;;;;;;;;19.40;38.90;;;;;;5048923;28;20274;-62
2023/03/09 01:29:08;;;;;;;;;;;19.40;38.80;;;;;;5057971;28;19921;-62
2023/03/09 01:31:35;;;;;;;;;;;19.40;38.80;;;;;;5055897;28;19920;-63
2023/03/09 01:34:01;;;;;;;;;;;19.40;38.80;;;;;;5055269;28;19925;-62
2023/03/09 01:36:32;;;;;;;;;;;19.50;38.80;;;;;;5055316;28;19920;-62
2023/03/09 01:38:59;;;;;;;;;;;19.50;38.80;;;;;;5053715;28;19958;-62
2023/03/09 01:41:25;;;;;;;;;;;19.40;38.80;;;;;;5076493;28;19920;-62
2023/03/09 01:43:52;;;;;;;;;;;19.40;38.80;;;;;;5077640;28;19920;-62
2023/03/09 01:46:32;;;;;;;;;;;19.40;38.80;;;;;;5088643;28;19965;-62
2023/03/09 01:49:01;;;;;;;;;;;19.40;38.80;;;;;;5095069;28;19981;-62
2023/03/09 01:51:28;;;;;;;;;;;19.40;38.70;;;;;;5080000;28;19924;-62
2023/03/09 01:53:56;;;;;;;;;;;19.40;38.70;;;;;;5072946;28;19925;-63
2023/03/09 01:56:23;;;;;;;;;;;19.40;38.70;;;;;;5056388;28;19974;-63
2023/03/09 01:58:49;;;;;;;;;;;19.40;38.70;;;;;;5054803;28;19924;-62
2023/03/09 02:01:16;;;;;;;;;;;19.40;38.70;;;;;;5055374;28;19970;-62
2023/03/09 02:03:43;;;;;;;;;;;19.40;38.70;;;;;;5071172;28;19920;-61
2023/03/09 02:06:10;;;;;;;;;;;19.40;38.70;;;;;;5055311;28;19940;-62
2023/03/09 02:08:37;;;;;;;;;;;19.40;38.70;;;;;;5053755;28;19925;-60
2023/03/09 02:11:07;;;;;;;;;;;19.40;38.60;;;;;;5055273;28;19920;-62
2023/03/09 02:13:35;;;;;;;;;;;19.40;38.60;;;;;;5056535;28;19955;-62
2023/03/09 02:16:02;;;;;;;;;;;19.40;38.60;;;;;;5059277;28;19967;-62
2023/03/09 02:18:28;;;;;;;;;;;19.40;38.60;;;;;;5037069;28;19986;-62
2023/03/09 02:20:57;;;;;;;;;;;19.40;38.60;;;;;;5052557;28;19921;-62
2023/03/09 02:23:26;;;;;;;;;;;19.40;38.60;;;;;;5054612;28;19920;-62
2023/03/09 02:25:54;;;;;;;;;;;19.40;38.60;;;;;;5054627;28;19927;-62
2023/03/09 02:28:22;;;;;;;;;;;19.40;38.60;;;;;;5054692;28;19920;-62
2023/03/09 02:30:49;;;;;;;;;;;19.40;38.60;;;;;;5074104;28;19920;-62
2023/03/09 02:33:25;;;;;;;;;;;19.40;38.50;;;;;;5054336;28;19920;-62
2023/03/09 02:35:52;;;;;;;;;;;19.40;38.60;;;;;;5053753;28;20299;-62
2023/03/09 02:38:19;;;;;;;;;;;19.40;38.50;;;;;;5072187;28;19924;-62
2023/03/09 02:40:46;;;;;;;;;;;19.40;38.50;;;;;;5053755;28;19924;-62
2023/03/09 02:43:13;;;;;;;;;;;19.40;38.50;;;;;;5053882;28;19974;-62
2023/03/09 02:45:41;;;;;;;;;;;19.40;38.50;;;;;;5054374;28;19920;-62
2023/03/09 02:48:08;;;;;;;;;;;19.40;38.50;;;;;;5055675;28;19921;-62
2023/03/09 02:50:35;;;;;;;;;;;19.40;38.50;;;;;;5046566;28;19920;-62
2023/03/09 02:53:02;;;;;;;;;;;19.40;38.50;;;;;;5073812;28;19928;-62
2023/03/09 02:55:29;;;;;;;;;;;19.40;38.50;;;;;;5074243;28;19943;-62
2023/03/09 02:57:55;;;;;;;;;;;19.40;38.40;;;;;;5056744;28;19920;-62
2023/03/09 03:00:23;;;;;;;;;;;19.40;38.40;;;;;;5063046;28;19950;-62
2023/03/09 03:02:51;;;;;;;;;;;19.40;38.40;;;;;;5062106;28;19974;-63
2023/03/09 03:05:18;;;;;;;;;;;19.40;38.40;;;;;;5040567;28;19960;-62
2023/03/09 03:07:44;;;;;;;;;;;19.40;38.40;;;;;;5052872;28;19970;-62
2023/03/09 03:10:11;;;;;;;;;;;19.40;38.40;;;;;;5065275;28;19924;-62
2023/03/09 03:12:38;;;;;;;;;;;19.30;38.30;;;;;;5055955;28;19942;-62
2023/03/09 03:15:05;;;;;;;;;;;19.40;38.30;;;;;;5053952;28;19921;-62
2023/03/09 03:17:32;;;;;;;;;;;19.40;38.30;;;;;;5074731;28;19924;-62
2023/03/09 03:20:00;;;;;;;;;;;19.30;38.30;;;;;;5076450;28;20339;-62
2023/03/09 03:22:26;;;;;;;;;;;19.30;38.30;;;;;;5063825;28;19921;-62
2023/03/09 03:24:53;;;;;;;;;;;19.30;38.30;;;;;;5054013;28;19951;-63
2023/03/09 03:27:20;;;;;;;;;;;19.40;38.30;;;;;;5053195;28;19921;-62
2023/03/09 03:29:47;;;;;;;;;;;19.30;38.30;;;;;;5055901;28;19920;-62
2023/03/09 03:32:13;;;;;;;;;;;19.30;38.20;;;;;;5071099;28;19942;-62
2023/03/09 03:34:40;;;;;;;;;;;19.40;38.30;;;;;;5054191;28;19920;-62
2023/03/09 03:37:08;;;;;;;;;;;19.30;38.30;;;;;;5053160;28;19978;-62
2023/03/09 03:39:35;;;;;;;;;;;19.30;38.30;;;;;;5055368;28;19920;-62
2023/03/09 03:42:02;;;;;;;;;;;19.40;38.30;;;;;;5053408;28;19924;-62
2023/03/09 03:44:28;;;;;;;;;;;19.30;38.20;;;;;;5070958;28;19925;-62
2023/03/09 03:46:55;;;;;;;;;;;19.30;38.20;;;;;;5056026;28;19974;-62
2023/03/09 03:49:22;;;;;;;;;;;19.30;38.20;;;;;;5056092;28;19978;-62
2023/03/09 03:51:49;;;;;;;;;;;19.30;38.20;;;;;;5068188;28;19995;-62
2023/03/09 03:54:17;;;;;;;;;;;19.30;38.20;;;;;;5066212;28;19921;-63
2023/03/09 03:56:44;;;;;;;;;;;19.30;38.20;;;;;;5050982;28;19967;-62
2023/03/09 03:59:11;;;;;;;;;;;19.30;38.20;;;;;;5072469;28;20022;-63
2023/03/09 04:01:37;;;;;;;;;;;19.30;38.20;;;;;;5068366;28;19963;-61
2023/03/09 04:04:04;;;;;;;;;;;19.30;38.10;;;;;;5065172;28;20019;-62
2023/03/09 04:06:32;;;;;;;;;;;19.30;38.10;;;;;;5064688;28;19942;-62
2023/03/09 04:08:58;;;;;;;;;;;19.30;38.20;;;;;;5061577;28;19959;-62
2023/03/09 04:11:26;;;;;;;;;;;19.30;38.10;;;;;;5054822;28;19920;-62
2023/03/09 04:13:54;;;;;;;;;;;19.30;38.10;;;;;;5057171;28;19920;-62
2023/03/09 04:16:20;;;;;;;;;;;19.30;38.10;;;;;;5055637;28;19921;-62
2023/03/09 04:18:47;;;;;;;;;;;19.30;38.10;;;;;;5057185;28;19966;-62
2023/03/09 04:21:14;;;;;;;;;;;19.30;38.10;;;;;;5074590;28;19920;-62
2023/03/09 04:23:41;;;;;;;;;;;19.30;38.10;;;;;;5074948;28;19958;-63
2023/03/09 04:26:07;;;;;;;;;;;19.30;38.00;;;;;;5055834;28;19930;-62
2023/03/09 04:28:35;;;;;;;;;;;19.30;38.00;;;;;;5056169;28;20072;-61
2023/03/09 04:31:02;;;;;;;;;;;19.30;38.00;;;;;;5056519;28;19924;-62
2023/03/09 04:33:29;;;;;;;;;;;19.30;38.00;;;;;;5056513;28;19920;-63
2023/03/09 04:35:56;;;;;;;;;;;19.30;38.00;;;;;;5056336;28;19927;-63
2023/03/09 04:38:22;;;;;;;;;;;19.30;38.00;;;;;;5059227;28;19928;-62
2023/03/09 04:40:49;;;;;;;;;;;19.30;38.00;;;;;;5054931;28;19920;-62
2023/03/09 04:43:16;;;;;;;;;;;19.30;38.00;;;;;;5058221;28;19920;-62
2023/03/09 04:45:44;;;;;;;;;;;19.30;38.00;;;;;;5044539;28;19924;-62
2023/03/09 04:48:11;;;;;;;;;;;19.30;38.00;;;;;;5038120;28;19920;-62
2023/03/09 04:50:38;;;;;;;;;;;19.30;38.00;;;;;;5065444;28;19920;-63
2023/03/09 04:53:05;;;;;;;;;;;19.30;38.00;;;;;;5057961;28;19949;-62
2023/03/09 04:55:33;;;;;;;;;;;19.30;38.00;;;;;;5055754;28;19921;-62
2023/03/09 04:58:00;;;;;;;;;;;19.30;37.90;;;;;;5056319;28;19920;-62
2023/03/09 05:00:27;;;;;;;;;;;19.30;37.90;;;;;;5037924;28;19921;-62
2023/03/09 05:02:55;;;;;;;;;;;19.30;37.90;;;;;;5040188;28;19924;-62
2023/03/09 05:05:22;;;;;;;;;;;19.30;37.90;;;;;;5057838;28;19921;-61
2023/03/09 05:07:49;;;;;;;;;;;19.30;37.90;;;;;;5055823;28;19945;-60
2023/03/09 05:10:16;;;;;;;;;;;19.30;37.90;;;;;;5075599;28;19924;-62
2023/03/09 05:12:43;;;;;;;;;;;19.30;37.90;;;;;;5054858;28;20346;-61
2023/03/09 05:15:10;;;;;;;;;;;19.30;38.00;;;;;;5057522;28;19974;-61
2023/03/09 05:17:37;;;;;;;;;;;19.30;38.00;;;;;;5054984;28;19928;-62
2023/03/09 05:20:08;;;;;;;;;;;19.30;38.00;;;;;;5058336;28;19924;-61
2023/03/09 05:22:35;;;;;;;;;;;19.30;38.00;;;;;;5070248;28;19924;-61
2023/03/09 05:25:02;;;;;;;;;;;19.30;38.00;;;;;;5070496;28;19921;-60
2023/03/09 05:27:29;;;;;;;;;;;19.30;38.00;;;;;;5057060;28;20037;-62
2023/03/09 05:29:55;;;;;;;;;;;19.30;38.00;;;;;;5055538;28;19920;-61
2023/03/09 05:32:22;;;;;;;;;;;19.30;38.00;;;;;;5057715;28;20235;-61
2023/03/09 05:34:49;;;;;;;;;;;19.30;38.00;;;;;;5051084;28;19924;-61
2023/03/09 05:37:17;;;;;;;;;;;19.30;38.00;;;;;;5055054;28;19925;-62
2023/03/09 05:39:44;;;;;;;;;;;19.30;38.00;;;;;;5035731;28;19929;-62
2023/03/09 05:42:11;;;;;;;;;;;19.30;38.00;;;;;;5051569;28;19998;-61
2023/03/09 05:44:37;;;;;;;;;;;19.30;38.00;;;;;;5036966;28;19984;-62
2023/03/09 05:47:04;;;;;;;;;;;19.30;38.00;;;;;;5044894;28;19931;-62
2023/03/09 05:49:31;;;;;;;;;;;19.30;38.00;;;;;;5056879;28;19921;-62
2023/03/09 05:51:58;;;;;;;;;;;19.30;38.00;;;;;;5054646;28;19928;-62
2023/03/09 05:54:26;;;;;;;;;;;19.30;38.00;;;;;;5054411;28;19920;-62
2023/03/09 05:56:53;;;;;;;;;;;19.30;38.00;;;;;;5056662;28;19970;-62
2023/03/09 05:59:20;;;;;;;;;;;19.30;38.00;;;;;;5054797;28;20305;-62
2023/03/09 06:01:47;;;;;;;;;;;19.30;38.00;;;;;;5056789;28;19920;-61
2023/03/09 06:04:13;;;;;;;;;;;19.30;38.00;;;;;;5076210;28;19935;-62
2023/03/09 06:06:40;;;;;;;;;;;19.30;38.00;;;;;;5074586;28;19926;-61
2023/03/09 06:09:07;;;;;;;;;;;19.30;38.00;;;;;;5042234;28;19970;-62
2023/03/09 06:11:36;;;;;;;;;;;19.30;38.00;;;;;;5054211;28;19947;-61
2023/03/09 06:14:03;;;;;;;;;;;19.30;38.10;;;;;;5050313;28;19981;-63
2023/03/09 06:16:30;;;;;;;;;;;19.30;38.10;;;;;;5057049;28;19920;-64
2023/03/09 06:18:57;;;;;;;;;;;19.30;38.10;;;;;;5054234;28;19996;-64
2023/03/09 06:21:23;;;;;;;;;;;19.30;38.10;;;;;;5056394;28;19948;-65
2023/03/09 06:23:53;;;;;;;;;;;19.30;38.10;;;;;;5054421;28;19950;-65
2023/03/09 06:26:20;;;;;;;;;;;19.30;38.70;;;;;;5071657;28;19920;-62
2023/03/09 06:28:48;;;;;;;;;;;19.30;38.20;;;;;;5074323;28;19967;-63
2023/03/09 06:31:15;;;;;;;;;;;19.30;38.10;;;;;;5057320;28;19974;-63
2023/03/09 06:33:42;;;;;;;;;;;19.30;38.10;;;;;;5055228;28;19951;-63
2023/03/09 06:36:09;;;;;;;;;;;19.30;38.00;;;;;;5053948;28;19995;-62
2023/03/09 06:38:36;;;;;;;;;;;19.30;38.00;;;;;;5056408;28;19970;-63
2023/03/09 06:41:03;;;;;;;;;;;19.30;38.00;;;;;;5054194;28;19921;-63
2023/03/09 06:43:29;;;;;;;;;;;19.30;37.90;;;;;;5069995;28;19921;-63
2023/03/09 06:45:58;;;;;;;;;;;19.30;37.80;;;;;;5055892;28;19921;-64
2023/03/09 06:48:24;;;;;;;;;;;19.30;37.80;;;;;;5055723;28;19954;-63
2023/03/09 06:50:51;;;;;;;;;;;19.30;37.80;;;;;;5055922;28;19920;-63
2023/03/09 06:53:18;;;;;;;;;;;19.30;37.90;;;;;;5051336;28;19928;-62
2023/03/09 06:55:44;;;;;;;;;;;19.30;37.90;;;;;;5051239;28;19932;-63
2023/03/09 06:58:15;;;;;;;;;;;19.30;37.90;;;;;;5053909;28;19920;-63
2023/03/09 07:00:46;;;;;;;;;;;19.30;37.90;;;;;;5073833;28;19921;-63
2023/03/09 07:03:15;;;;;;;;;;;19.30;38.00;;;;;;5054557;28;19920;-64
2023/03/09 07:05:42;;;;;;;;;;;19.30;38.00;;;;;;5053172;28;19921;-62
2023/03/09 07:08:09;;;;;;;;;;;19.30;38.10;;;;;;5072082;28;19962;-63
2023/03/09 07:10:36;;;;;;;;;;;19.30;38.10;;;;;;5053586;28;19928;-62
2023/03/09 07:13:03;;;;;;;;;;;19.30;38.10;;;;;;5068061;28;19920;-63
2023/03/09 07:15:30;;;;;;;;;;;19.30;38.20;;;;;;5070023;28;20031;-62
2023/03/09 07:17:57;;;;;;;;;;;19.30;38.20;;;;;;5053188;28;19920;-64
2023/03/09 07:20:25;;;;;;;;;;;19.30;38.20;;;;;;5052577;28;19928;-63
2023/03/09 07:22:52;;;;;;;;;;;19.30;38.20;;;;;;5047488;28;20385;-63
2023/03/09 07:25:19;;;;;;;;;;;19.30;38.20;;;;;;5086544;28;20255;-63
2023/03/09 07:27:47;;;;;;;;;;;19.30;38.20;;;;;;5064073;28;20313;-63
2023/03/09 07:30:14;;;;;;;;;;;19.30;38.20;;;;;;5070945;28;20476;-63
2023/03/09 07:32:41;;;;;;;;;;;19.30;38.20;;;;;;5064749;28;19981;-63
2023/03/09 07:35:08;;;;;;;;;;;19.30;38.20;;;;;;5061182;28;20016;-63
2023/03/09 07:37:37;;;;;;;;;;;19.30;38.20;;;;;;5056851;28;19927;-62
2023/03/09 07:40:04;;;;;;;;;;;19.30;38.20;;;;;;5056547;28;19924;-63
2023/03/09 07:42:31;;;;;;;;;;;19.30;38.20;;;;;;5057970;28;19920;-63
2023/03/09 07:44:57;;;;;;;;;;;19.30;38.30;;;;;;5056592;28;19924;-63
2023/03/09 07:47:24;;;;;;;;;;;19.30;38.30;;;;;;5059020;28;19921;-62
2023/03/09 07:49:51;;;;;;;;;;;19.30;38.30;;;;;;5056788;28;19920;-63
2023/03/09 07:52:18;;;;;;;;;;;19.30;38.30;;;;;;5073027;28;19967;-63
2023/03/09 07:54:46;;;;;;;;;;;19.30;38.30;;;;;;5057373;28;19921;-63
2023/03/09 07:57:12;;;;;;;;;;;19.30;38.30;;;;;;5057392;28;19924;-63
2023/03/09 07:59:39;;;;;;;;;;;19.30;38.40;;;;;;5057274;28;19921;-62
2023/03/09 08:02:06;;;;;;;;;;;19.40;38.50;;;;;;5071759;28;19931;-63
2023/03/09 08:04:33;;;;;;;;;;;19.30;38.40;;;;;;5097342;28;20006;-62
2023/03/09 08:07:00;;;;;;;;;;;19.30;38.40;;;;;;5074617;28;19920;-63
2023/03/09 08:09:27;;;;;;;;;;;19.30;38.40;;;;;;5059647;28;19970;-64
2023/03/09 08:11:55;;;;;;;;;;;19.30;38.50;;;;;;5076493;28;19935;-63
2023/03/09 08:14:22;;;;;;;;;;;19.30;38.50;;;;;;5071731;28;19920;-63
2023/03/09 08:16:49;;;;;;;;;;;19.40;38.60;;;;;;5073560;28;19920;-63
2023/03/09 08:19:20;;;;;;;;;;;19.30;38.50;;;;;;5058581;28;20392;-63
2023/03/09 08:21:46;;;;;;;;;;;19.40;38.60;;;;;;5056673;28;20419;-62
2023/03/09 08:24:13;;;;;;;;;;;19.40;38.70;;;;;;5058668;28;19920;-63
2023/03/09 08:26:40;;;;;;;;;;;19.30;38.50;;;;;;5074171;28;19990;-62
2023/03/09 08:29:08;;;;;;;;;;;19.40;38.70;;;;;;5058227;28;19925;-63
2023/03/09 08:31:35;;;;;;;;;;;19.40;38.70;;;;;;5057039;28;19920;-63
2023/03/09 08:34:01;;;;;;;;;;;19.30;38.60;;;;;;5067656;28;19927;-62
2023/03/09 08:36:28;;;;;;;;;;;19.30;38.60;;;;;;5097120;28;19970;-63
2023/03/09 08:38:55;;;;;;;;;;;19.40;38.70;;;;;;5063326;28;19924;-63
2023/03/09 08:41:22;;;;;;;;;;;19.40;38.70;;;;;;5074675;28;19920;-63
2023/03/09 08:43:49;;;;;;;;;;;19.40;38.80;;;;;;5057299;28;19920;-60
2023/03/09 08:46:17;;;;;;;;;;;19.40;38.80;;;;;;5073466;28;19970;-63
2023/03/09 08:48:43;;;;;;;;;;;19.40;38.80;;;;;;5066215;28;19924;-63
2023/03/09 08:51:10;;;;;;;;;;;19.40;38.80;;;;;;5076186;28;19962;-63
2023/03/09 08:53:37;;;;;;;;;;;19.40;38.80;;;;;;5066662;28;19928;-63
2023/03/09 08:56:04;;;;;;;;;;;19.40;38.80;;;;;;5078629;28;19920;-62
2023/03/09 08:58:32;;;;;;;;;;;19.40;38.90;;;;;;5038454;28;19921;-62
2023/03/09 09:01:00;;;;;;;;;;;19.40;38.90;;;;;;5058812;28;19920;-62
2023/03/09 09:03:28;;;;;;;;;;;19.40;38.90;;;;;;5074220;28;19921;-62
2023/03/09 09:05:55;;;;;;;;;;;19.40;38.90;;;;;;5073090;28;19960;-64
2023/03/09 09:08:21;;;;;;;;;;;19.30;38.80;;;;;;5073993;28;19924;-63
2023/03/09 09:10:48;;;;;;;;;;;19.30;38.80;;;;;;5076174;28;19920;-62
2023/03/09 09:13:15;;;;;;;;;;;19.40;38.90;;;;;;5078850;28;19927;-62
2023/03/09 09:15:43;;;;;;;;;;;19.40;39.00;;;;;;5078485;28;19927;-62
2023/03/09 09:18:09;;;;;;;;;;;19.40;39.00;;;;;;5062277;28;19920;-62
2023/03/09 09:20:38;;;;;;;;;;;19.40;39.00;;;;;;5058058;28;20271;-63
2023/03/09 09:23:05;;;;;;;;;;;19.40;39.00;;;;;;5073396;28;19990;-62
2023/03/09 09:25:33;;;;;;;;;;;19.40;39.00;;;;;;5057253;28;19924;-61
2023/03/09 09:28:00;;;;;;;;;;;19.40;39.00;;;;;;5069826;28;19943;-62
2023/03/09 09:30:27;;;;;;;;;;;19.40;39.00;;;;;;5072450;28;20321;-63
2023/03/09 09:32:53;;;;;;;;;;;19.40;39.00;;;;;;5073711;28;19920;-63
2023/03/09 09:35:20;;;;;;;;;;;19.40;39.00;;;;;;5071777;28;19924;-63
2023/03/09 09:37:48;;;;;;;;;;;19.40;39.00;;;;;;5074238;28;19947;-63
2023/03/09 09:40:15;;;;;;;;;;;19.40;39.00;;;;;;5072350;28;19970;-63
2023/03/09 09:42:43;;;;;;;;;;;19.40;39.10;;;;;;5075025;28;20274;-63
2023/03/09 09:45:25;;;;;;;;;;;19.40;39.10;;;;;;5068942;28;19927;-63
2023/03/09 09:47:51;;;;;;;;;;;19.40;39.10;;;;;;5073172;28;19973;-62
2023/03/09 09:50:18;;;;;;;;;;;19.40;39.00;;;;;;5069551;28;19924;-63
2023/03/09 09:52:46;;;;;;;;;;;19.40;39.00;;;;;;5072418;28;19921;-63
2023/03/09 09:55:17;;;;;;;;;;;19.40;39.10;;;;;;5056269;28;19995;-63
2023/03/09 09:57:44;;;;;;;;;;;19.40;39.10;;;;;;5054327;28;20385;-62
2023/03/09 10:00:13;;;;;;;;;;;19.40;39.10;;;;;;5055802;28;20072;-63
2023/03/09 10:02:43;;;;;;;;;;;19.40;39.10;;;;;;5063657;28;19921;-62
2023/03/09 10:05:12;;;;;;;;;;;19.40;39.10;;;;;;5076681;28;19927;-63
2023/03/09 10:07:41;;;;;;;;;;;19.40;39.10;;;;;;5070503;28;19981;-64
2023/03/09 10:10:10;;;;;;;;;;;19.40;39.10;;;;;;5071984;28;19920;-63
2023/03/09 10:12:39;;;;;;;;;;;19.40;39.10;;;;;;5074251;28;19970;-63
2023/03/09 10:15:08;;;;;;;;;;;19.40;39.10;;;;;;5074321;28;19920;-63
2023/03/09 10:17:36;;;;;;;;;;;19.40;39.20;;;;;;5073205;28;19920;-63
2023/03/09 10:20:04;;;;;;;;;;;19.40;39.10;;;;;;5074574;28;19942;-63
2023/03/09 10:22:31;;;;;;;;;;;19.40;39.20;;;;;;5076483;28;19928;-63
2023/03/09 10:24:58;;;;;;;;;;;19.40;39.20;;;;;;5057322;28;20297;-63
2023/03/09 10:27:26;;;;;;;;;;;19.40;39.20;;;;;;5074281;28;19925;-63
2023/03/09 10:29:56;;;;;;;;;;;19.40;39.20;;;;;;5072037;28;19966;-63
2023/03/09 10:32:24;;;;;;;;;;;19.40;39.20;;;;;;5065406;28;20313;-63
2023/03/09 10:34:55;;;;;;;;;;;19.40;39.20;;;;;;5094331;28;19924;-63
2023/03/09 10:37:23;;;;;;;;;;;19.40;39.20;;;;;;5074522;28;19920;-63
2023/03/09 10:39:50;;;;;;;;;;;19.40;39.30;;;;;;5073839;28;19921;-63
2023/03/09 10:42:18;;;;;;;;;;;19.40;39.30;;;;;;5070756;28;19920;-63
2023/03/09 10:44:47;;;;;;;;;;;19.40;39.30;;;;;;5073553;28;20026;-63
2023/03/09 10:47:15;;;;;;;;;;;19.40;39.30;;;;;;5053561;28;20007;-63
2023/03/09 10:49:42;;;;;;;;;;;19.40;39.30;;;;;;5038704;28;20367;-63
2023/03/09 10:52:16;;;;;;;;;;;19.40;39.30;;;;;;5073787;28;19920;-63
2023/03/09 10:54:43;;;;;;;;;;;19.40;39.30;;;;;;5058456;28;19974;-63
2023/03/09 10:57:21;;;;;;;;;;;19.40;39.30;;;;;;5036216;28;20386;-63
2023/03/09 10:59:54;;;;;;;;;;;19.40;39.30;;;;;;5048327;28;20359;-64
2023/03/09 11:02:27;;;;;;;;;;;19.40;39.30;;;;;;5035815;28;20367;-63
2023/03/09 11:04:54;;;;;;;;;;;19.40;39.30;;;;;;5054757;28;19920;-62
2023/03/09 11:07:23;;;;;;;;;;;19.40;39.40;;;;;;5053119;28;19921;-63
2023/03/09 11:09:52;;;;;;;;;;;19.50;39.50;;;;;;5036004;28;19921;-63
2023/03/09 11:12:22;;;;;;;;;;;19.40;39.40;;;;;;5040321;28;19925;-62
2023/03/09 11:14:49;;;;;;;;;;;19.40;39.40;;;;;;5040298;28;19966;-62
2023/03/09 11:17:27;;;;;;;;;;;19.40;39.40;;;;;;5039890;28;19921;-62
2023/03/09 11:20:08;;;;;;;;;;;19.40;39.40;;;;;;5058030;28;19920;-62
2023/03/09 11:22:35;;;;;;;;;;;19.50;39.40;;;;;;5057828;28;19920;-62
2023/03/09 11:25:02;;;;;;;;;;;19.40;39.40;;;;;;5047657;28;19969;-62
2023/03/09 11:27:29;;;;;;;;;;;19.40;39.40;;;;;;5075233;28;19947;-63
2023/03/09 11:29:57;;;;;;;;;;;19.40;39.40;;;;;;5059649;28;19920;-62
2023/03/09 11:32:24;;;;;;;;;;;19.40;39.40;;;;;;5056446;28;19925;-62
2023/03/09 11:34:52;;;;;;;;;;;19.50;39.40;;;;;;5075463;28;19920;-62
2023/03/09 11:37:19;;;;;;;;;;;19.40;39.40;;;;;;5058914;28;19920;-63
2023/03/09 11:39:48;;;;;;;;;;;19.50;39.40;;;;;;5055607;28;19936;-62
2023/03/09 11:42:16;;;;;;;;;;;19.50;39.40;;;;;;5057612;28;19993;-62
2023/03/09 11:44:43;;;;;;;;;;;19.40;39.40;;;;;;5058637;28;19959;-63
2023/03/09 11:47:12;;;;;;;;;;;19.40;39.40;;;;;;5056939;28;19920;-63
2023/03/09 11:49:39;;;;;;;;;;;19.40;39.40;;;;;;5058843;28;19974;-63
2023/03/09 11:52:07;;;;;;;;;;;19.50;39.50;;;;;;5058060;28;19927;-63
2023/03/09 11:54:34;;;;;;;;;;;19.40;40.10;;;;;;5059549;28;19921;-64
2023/03/09 11:57:02;;;;;;;;;;;19.40;39.50;;;;;;5075185;28;19924;-64
2023/03/09 11:59:30;;;;;;;;;;;19.50;39.50;;;;;;5075121;28;19947;-62
2023/03/09 12:01:57;;;;;;;;;;;19.40;39.50;;;;;;5056939;28;20011;-62
2023/03/09 12:04:24;;;;;;;;;;;19.40;39.50;;;;;;5056949;28;19924;-61
2023/03/09 12:06:52;;;;;;;;;;;19.50;39.50;;;;;;5056526;28;19924;-62
2023/03/09 12:09:24;;;;;;;;;;;19.50;39.50;;;;;;5061511;28;19942;-62
2023/03/09 12:11:51;;;;;;;;;;;19.50;39.50;;;;;;5055119;28;20320;-62
2023/03/09 12:14:22;;;;;;;;;;;19.50;39.60;;;;;;5059275;28;19966;-62
2023/03/09 12:16:50;;;;;;;;;;;19.40;39.60;;;;;;5058769;28;19920;-62
2023/03/09 12:19:18;;;;;;;;;;;19.50;39.60;;;;;;5060092;28;19920;-62
2023/03/09 12:21:46;;;;;;;;;;;19.50;39.60;;;;;;5074659;28;19946;-62
2023/03/09 12:24:31;;;;;;;;;;;19.50;39.70;;;;;;5058367;28;19921;-62
2023/03/09 12:27:02;;;;;;;;;;;19.50;39.70;;;;;;5073139;28;19990;-62
2023/03/09 12:29:32;;;;;;;;;;;19.50;39.70;;;;;;5060587;28;19920;-62
2023/03/09 12:32:19;;;;;;;;;;;19.50;39.70;;;;;;5070579;28;19931;-62
2023/03/09 12:34:47;;;;;;;;;;;19.50;39.70;;;;;;5078616;28;19928;-62
2023/03/09 12:37:32;;;;;;;;;;;19.50;39.70;;;;;;5065182;28;19927;-62
2023/03/09 12:40:01;;;;;;;;;;;19.50;39.70;;;;;;5065874;28;19935;-62
2023/03/09 12:42:29;;;;;;;;;;;19.50;39.70;;;;;;5067425;28;19924;-63
2023/03/09 12:45:00;;;;;;;;;;;19.50;39.80;;;;;;5064271;28;19942;-62
2023/03/09 12:47:34;;;;;;;;;;;19.50;39.80;;;;;;5076051;28;19924;-62
2023/03/09 12:50:02;;;;;;;;;;;19.50;39.80;;;;;;5078163;28;20307;-62
2023/03/09 12:52:39;;;;;;;;;;;19.50;39.80;;;;;;5072171;28;19935;-62
2023/03/09 12:55:17;;;;;;;;;;;19.50;39.70;;;;;;5045343;28;20453;-62
2023/03/09 12:57:44;;;;;;;;;;;19.50;39.80;;;;;;5070449;28;19970;-63
2023/03/09 13:00:12;;;;;;;;;;;19.50;39.80;;;;;;5065092;28;20372;-62
2023/03/09 13:02:39;;;;;;;;;;;19.50;39.80;;;;;;5072444;28;19939;-60
2023/03/09 13:05:13;;;;;;;;;;;19.50;39.80;;;;;;5056317;28;19975;-61
2023/03/09 13:07:40;;;;;;;;;;;19.50;39.80;;;;;;5056073;28;19924;-62
2023/03/09 13:10:11;;;;;;;;;;;19.50;39.80;;;;;;5092542;28;20397;-62
2023/03/09 13:12:39;;;;;;;;;;;19.50;39.80;;;;;;5088074;28;20420;-61
2023/03/09 13:15:21;;;;;;;;;;;19.50;39.80;;;;;;5075524;28;19924;-62
2023/03/09 13:18:07;;;;;;;;;;;19.50;39.80;;;;;;5056094;28;19970;-62
2023/03/09 13:20:35;;;;;;;;;;;19.50;39.80;;;;;;5057489;28;19970;-63
2023/03/09 13:23:04;;;;;;;;;;;19.50;39.80;;;;;;5067840;28;19927;-61
2023/03/09 13:25:35;;;;;;;;;;;19.50;39.90;;;;;;5057747;28;19970;-63
2023/03/09 13:28:04;;;;;;;;;;;19.50;39.90;;;;;;5072481;28;19970;-62
2023/03/09 13:30:32;;;;;;;;;;;19.50;39.90;;;;;;5055767;28;19920;-62
2023/03/09 13:33:03;;;;;;;;;;;19.50;39.80;;;;;;5057747;28;20019;-63
2023/03/09 13:35:32;;;;;;;;;;;19.50;39.90;;;;;;5056523;28;19921;-63
2023/03/09 13:37:58;;;;;;;;;;;19.50;39.90;;;;;;5056109;28;20007;-62
2023/03/09 13:40:26;;;;;;;;;;;19.50;39.90;;;;;;5057054;28;19920;-62
2023/03/09 13:42:53;;;;;;;;;;;19.50;39.90;;;;;;5055347;28;19924;-63
2023/03/09 13:45:22;;;;;;;;;;;19.50;39.90;;;;;;5052313;28;19933;-62
2023/03/09 13:47:51;;;;;;;;;;;19.50;39.90;;;;;;5073339;28;19925;-63
2023/03/09 13:50:18;;;;;;;;;;;19.50;40.00;;;;;;5072012;28;19924;-63
2023/03/09 13:52:58;;;;;;;;;;;19.50;40.00;;;;;;5073500;28;19920;-62
2023/03/09 13:55:27;;;;;;;;;;;19.50;40.00;;;;;;5055763;28;19924;-62
2023/03/09 13:57:54;;;;;;;;;;;19.50;40.00;;;;;;5061695;28;19921;-62
2023/03/09 14:00:23;;;;;;;;;;;19.50;40.00;;;;;;5073551;28;19972;-62
2023/03/09 14:02:49;;;;;;;;;;;19.50;40.00;;;;;;5071321;28;19926;-61
2023/03/09 14:05:20;;;;;;;;;;;19.50;40.00;;;;;;5059351;28;19970;-62
2023/03/09 14:07:47;;;;;;;;;;;19.50;40.00;;;;;;5054982;28;19920;-62
2023/03/09 14:10:20;;;;;;;;;;;19.50;40.00;;;;;;5076018;28;19981;-62
2023/03/09 14:12:48;;;;;;;;;;;19.50;40.00;;;;;;5065481;28;19966;-62
2023/03/09 14:15:16;;;;;;;;;;;19.50;40.00;;;;;;5073067;28;19944;-62
2023/03/09 14:17:44;;;;;;;;;;;19.50;40.00;;;;;;5072245;28;19927;-62
2023/03/09 14:20:15;;;;;;;;;;;19.50;40.00;;;;;;5057290;28;19925;-62